createdAt,value
2023-04-21T00:01:08.553Z,40.48
2023-04-21T00:03:38.444Z,40.36
2023-04-21T00:06:07.388Z,40.42
2023-04-21T00:08:38.143Z,40.32
2023-04-21T00:11:07.507Z,40.21
2023-04-21T00:13:36.127Z,40.11
2023-04-21T00:16:04.180Z,40.03
2023-04-21T00:18:32.301Z,40.02
2023-04-21T00:21:00.158Z,40.19
2023-04-21T00:23:28.083Z,40.22
2023-04-21T00:25:56.106Z,40.24
2023-04-21T00:28:25.387Z,40.33
2023-04-21T00:30:54.444Z,40.40
2023-04-21T00:33:22.370Z,40.46
2023-04-21T00:35:50.339Z,40.52
2023-04-21T00:38:18.353Z,40.35
2023-04-21T00:40:46.280Z,40.43
2023-04-21T00:43:14.201Z,40.58
2023-04-21T00:45:46.038Z,40.71
2023-04-21T00:48:14.084Z,40.73
2023-04-21T00:50:42.220Z,40.98
2023-04-21T00:53:10.287Z,40.98
2023-04-21T00:55:38.273Z,41.19
2023-04-21T00:58:06.339Z,41.07
2023-04-21T01:00:34.267Z,41.26
2023-04-21T01:03:03.910Z,41.41
2023-04-21T01:05:32.404Z,41.52
2023-04-21T01:08:00.321Z,41.62
2023-04-21T01:10:28.257Z,41.69
2023-04-21T01:12:56.192Z,41.44
2023-04-21T01:15:24.445Z,41.71
2023-04-21T01:17:54.332Z,42.14
2023-04-21T01:20:23.824Z,42.24
2023-04-21T01:22:53.112Z,42.20
2023-04-21T01:25:22.443Z,42.11
2023-04-21T01:27:50.489Z,42.15
2023-04-21T01:30:18.454Z,42.02
2023-04-21T01:32:46.470Z,42.08
2023-04-21T01:35:14.535Z,42.35
2023-04-21T01:37:42.478Z,42.33
2023-04-21T01:40:12.443Z,42.17
2023-04-21T01:42:42.654Z,42.34
2023-04-21T01:45:11.341Z,42.37
2023-04-21T01:47:39.384Z,42.28
2023-04-21T01:50:08.489Z,42.18
2023-04-21T01:52:36.472Z,42.67
2023-04-21T01:55:04.501Z,42.46
2023-04-21T01:57:34.052Z,42.65
2023-04-21T02:00:02.215Z,42.75
2023-04-21T02:02:30.283Z,42.69
2023-04-21T02:04:58.264Z,42.57
2023-04-21T02:07:26.220Z,42.55
2023-04-21T02:09:54.801Z,42.65
2023-04-21T02:12:22.748Z,42.81
2023-04-21T02:14:52.036Z,42.85
2023-04-21T02:17:20.046Z,42.95
2023-04-21T02:19:48.303Z,42.95
2023-04-21T02:22:16.211Z,42.97
2023-04-21T02:24:44.184Z,42.94
2023-04-21T02:27:13.394Z,43.35
2023-04-21T02:29:41.378Z,43.22
2023-04-21T02:32:18.298Z,43.38
2023-04-21T02:34:53.330Z,43.64
2023-04-21T02:37:21.501Z,43.31
2023-04-21T02:39:49.550Z,43.20
2023-04-21T02:42:17.581Z,43.39
2023-04-21T02:44:45.485Z,43.50
2023-04-21T02:47:16.276Z,43.31
2023-04-21T02:49:44.589Z,43.20
2023-04-21T02:52:13.691Z,43.43
2023-04-21T02:54:41.648Z,43.54
2023-04-21T02:57:10.220Z,43.45
2023-04-21T02:59:38.199Z,43.48
2023-04-21T03:02:06.266Z,43.46
2023-04-21T03:04:36.274Z,43.90
2023-04-21T03:07:05.482Z,43.99
2023-04-21T03:09:33.546Z,43.98
2023-04-21T03:12:01.668Z,44.16
2023-04-21T03:14:29.628Z,44.43
2023-04-21T03:16:57.627Z,44.58
2023-04-21T03:19:25.712Z,44.70
2023-04-21T03:21:55.052Z,44.61
2023-04-21T03:24:23.128Z,44.67
2023-04-21T03:26:51.308Z,44.51
2023-04-21T03:29:19.641Z,44.67
2023-04-21T03:31:47.999Z,44.37
2023-04-21T03:34:16.488Z,44.48
2023-04-21T03:36:44.596Z,44.66
2023-04-21T03:41:47.187Z,44.57
2023-04-21T03:44:15.216Z,44.79
2023-04-21T03:46:43.181Z,44.83
2023-04-21T03:49:11.218Z,45.38
2023-04-21T03:51:39.097Z,45.23
2023-04-21T03:54:07.112Z,45.14
2023-04-21T03:56:36.488Z,45.12
2023-04-21T03:59:04.876Z,45.11
2023-04-21T04:01:32.920Z,45.37
2023-04-21T04:04:00.979Z,45.19
2023-04-21T04:06:29.622Z,44.63
2023-04-21T04:08:57.529Z,44.65
2023-04-21T04:11:25.487Z,44.47
2023-04-21T04:13:54.783Z,44.59
2023-04-21T04:16:23.093Z,44.68
2023-04-21T04:18:51.174Z,44.48
2023-04-21T04:21:19.107Z,44.81
2023-04-21T04:23:47.158Z,44.69
2023-04-21T04:26:15.240Z,44.86
2023-04-21T04:28:43.165Z,44.69
2023-04-21T04:31:13.525Z,44.59
2023-04-21T04:33:43.171Z,44.74
2023-04-21T04:36:11.999Z,44.80
2023-04-21T04:38:40.343Z,44.58
2023-04-21T04:41:09.102Z,44.65
2023-04-21T04:43:39.082Z,44.88
2023-04-21T04:46:09.080Z,45.09
2023-04-21T04:48:38.742Z,45.01
2023-04-21T04:51:07.920Z,44.99
2023-04-21T04:53:35.938Z,45.26
2023-04-21T04:56:03.992Z,45.25
2023-04-21T04:58:31.947Z,44.98
2023-04-21T05:00:59.939Z,44.83
2023-04-21T05:03:28.069Z,44.88
2023-04-21T05:05:57.575Z,44.98
2023-04-21T05:08:25.760Z,44.80
2023-04-21T05:10:53.681Z,45.00
2023-04-21T05:13:21.579Z,44.92
2023-04-21T05:15:49.571Z,45.56
2023-04-21T05:18:17.508Z,45.10
2023-04-21T05:20:45.430Z,45.31
2023-04-21T05:23:18.426Z,45.67
2023-04-21T05:25:46.524Z,45.79
2023-04-21T05:28:14.884Z,45.39
2023-04-21T05:30:42.955Z,45.46
2023-04-21T05:33:11.002Z,45.99
2023-04-21T05:35:39.002Z,46.17
2023-04-21T05:38:07.217Z,46.03
2023-04-21T05:40:36.516Z,46.10
2023-04-21T05:43:04.552Z,46.16
2023-04-21T05:45:32.483Z,46.50
2023-04-21T05:48:00.514Z,46.46
2023-04-21T05:50:34.030Z,46.69
2023-04-21T05:53:02.132Z,46.80
2023-04-21T05:55:30.020Z,46.86
2023-04-21T05:57:59.448Z,47.05
2023-04-21T06:00:27.463Z,47.15
2023-04-21T06:02:55.499Z,47.46
2023-04-21T06:05:23.908Z,47.45
2023-04-21T06:07:51.862Z,47.75
2023-04-21T06:10:19.849Z,47.72
2023-04-21T06:12:47.893Z,47.97
2023-04-21T06:15:19.400Z,47.99
2023-04-21T06:17:47.390Z,47.96
2023-04-21T06:20:15.448Z,48.23
2023-04-21T06:22:43.883Z,48.17
2023-04-21T06:25:11.925Z,48.41
2023-04-21T06:27:39.999Z,48.28
2023-04-21T06:30:09.653Z,48.47
2023-04-21T06:32:39.044Z,48.77
2023-04-21T06:35:07.449Z,48.56
2023-04-21T06:37:35.431Z,48.64
2023-04-21T06:40:03.582Z,48.79
2023-04-21T06:42:31.573Z,48.85
2023-04-21T06:44:59.464Z,48.72
2023-04-21T06:47:27.632Z,48.93
2023-04-21T06:49:57.200Z,48.86
2023-04-21T06:52:25.095Z,49.32
2023-04-21T06:54:53.091Z,49.22
2023-04-21T06:57:20.980Z,49.06
2023-04-21T06:59:49.008Z,48.98
2023-04-21T07:02:17.088Z,48.99
2023-04-21T07:04:45.173Z,49.08
2023-04-21T07:07:14.675Z,49.16
2023-04-21T07:09:42.613Z,49.23
2023-04-21T07:12:10.589Z,49.78
2023-04-21T07:14:38.618Z,49.16
2023-04-21T07:17:06.761Z,49.52
2023-04-21T07:19:34.979Z,49.31
2023-04-21T07:22:02.897Z,49.20
2023-04-21T07:24:34.441Z,49.14
2023-04-21T07:27:02.569Z,49.10
2023-04-21T07:29:30.636Z,48.94
2023-04-21T07:31:58.634Z,48.85
2023-04-21T07:34:26.659Z,48.88
2023-04-21T07:36:56.624Z,48.95
2023-04-21T07:39:24.582Z,48.78
2023-04-21T07:41:53.983Z,48.51
2023-04-21T07:44:21.861Z,48.33
2023-04-21T07:46:49.834Z,48.38
2023-04-21T07:49:18.357Z,48.11
2023-04-21T07:51:46.435Z,47.97
2023-04-21T07:54:14.610Z,47.96
2023-04-21T07:56:42.694Z,47.55
2023-04-21T07:59:12.088Z,47.54
2023-04-21T08:01:40.106Z,47.17
2023-04-21T08:04:08.211Z,47.28
2023-04-21T08:06:36.747Z,47.07
2023-04-21T08:09:05.063Z,46.78
2023-04-21T08:11:32.995Z,46.56
2023-04-21T08:14:01.198Z,46.50
2023-04-21T08:16:30.653Z,46.30
2023-04-21T08:18:59.122Z,46.20
2023-04-21T08:21:28.409Z,45.89
2023-04-21T08:23:57.508Z,45.65
2023-04-21T08:26:25.705Z,45.31
2023-04-21T08:28:53.771Z,44.94
2023-04-21T08:31:21.838Z,44.48
2023-04-21T08:34:00.923Z,44.04
2023-04-21T08:36:32.004Z,43.96
2023-04-21T08:39:00.174Z,43.67
2023-04-21T08:41:30.490Z,43.54
2023-04-21T08:43:58.462Z,43.51
2023-04-21T08:46:26.579Z,43.22
2023-04-21T08:48:55.935Z,43.25
2023-04-21T08:51:25.136Z,43.11
2023-04-21T08:53:53.104Z,43.03
2023-04-21T08:56:21.160Z,42.92
2023-04-21T08:58:49.243Z,42.95
2023-04-21T09:01:17.677Z,42.73
2023-04-21T09:03:48.071Z,42.72
2023-04-21T09:06:18.294Z,42.53
2023-04-21T09:08:56.241Z,42.70
2023-04-21T09:11:25.788Z,42.50
2023-04-21T09:13:55.523Z,42.34
2023-04-21T09:16:23.742Z,41.94
2023-04-21T09:18:51.909Z,42.07
2023-04-21T09:21:23.292Z,41.95
2023-04-21T09:23:53.857Z,41.84
2023-04-21T09:26:23.099Z,41.39
2023-04-21T09:28:52.060Z,41.70
2023-04-21T09:31:25.340Z,41.61
2023-04-21T09:33:58.671Z,41.22
2023-04-21T09:36:30.547Z,40.84
2023-04-21T09:41:31.871Z,40.76
2023-04-21T09:44:01.804Z,40.54
2023-04-21T09:46:31.272Z,40.45
2023-04-21T09:48:59.536Z,40.27
2023-04-21T09:51:42.864Z,40.06
2023-04-21T09:54:29.118Z,40.21
2023-04-21T09:57:01.740Z,39.91
2023-04-21T09:59:31.608Z,39.36
2023-04-21T10:01:59.927Z,39.13
2023-04-21T10:04:31.022Z,39.19
2023-04-21T10:07:01.223Z,39.23
2023-04-21T10:09:32.678Z,39.29
2023-04-21T10:12:02.761Z,39.35
2023-04-21T10:14:31.066Z,39.06
2023-04-21T10:16:59.947Z,38.92
2023-04-21T10:19:28.744Z,38.26
2023-04-21T10:21:57.517Z,37.88
2023-04-21T10:24:29.469Z,37.92
2023-04-21T10:26:59.524Z,37.97
2023-04-21T10:29:34.766Z,37.97
2023-04-21T10:32:09.486Z,37.50
2023-04-21T10:34:38.600Z,37.55
2023-04-21T10:37:28.086Z,37.37
2023-04-21T10:39:57.969Z,37.22
2023-04-21T10:42:36.967Z,36.84
2023-04-21T10:45:11.936Z,36.70
2023-04-21T10:47:42.933Z,36.81
2023-04-21T10:50:21.701Z,36.49
2023-04-21T10:52:54.708Z,36.38
2023-04-21T10:55:27.060Z,36.73
2023-04-21T10:57:55.078Z,36.67
2023-04-21T11:00:24.008Z,36.83
2023-04-21T11:03:00.512Z,36.78
2023-04-21T11:05:29.924Z,36.63
2023-04-21T11:08:15.574Z,36.48
2023-04-21T11:10:50.407Z,36.26
2023-04-21T11:13:18.574Z,35.66
2023-04-21T11:16:04.552Z,35.34
2023-04-21T11:18:38.676Z,35.30
2023-04-21T11:21:15.994Z,34.89
2023-04-21T11:24:03.057Z,35.06
2023-04-21T11:26:33.409Z,34.92
2023-04-21T11:29:02.952Z,34.70
2023-04-21T11:31:32.032Z,34.76
2023-04-21T11:34:05.240Z,35.17
2023-04-21T11:36:33.906Z,35.65
2023-04-21T11:39:08.578Z,35.72
2023-04-21T11:41:40.726Z,35.70
2023-04-21T11:44:09.563Z,35.91
2023-04-21T11:46:38.087Z,36.25
2023-04-21T11:49:07.127Z,36.40
2023-04-21T11:51:35.655Z,36.51
2023-04-21T11:54:06.368Z,36.66
2023-04-21T11:56:40.376Z,36.58
2023-04-21T11:59:08.971Z,36.99
2023-04-21T12:01:37.176Z,37.10
2023-04-21T12:04:07.271Z,37.22
2023-04-21T12:06:38.734Z,37.29
2023-04-21T12:09:06.746Z,37.34
2023-04-21T12:11:35.938Z,37.50
2023-04-21T12:14:05.529Z,37.45
2023-04-21T12:16:33.732Z,37.47
2023-04-21T12:19:02.279Z,37.30
2023-04-21T12:21:30.526Z,37.28
2023-04-21T12:23:58.619Z,37.44
2023-04-21T12:26:26.635Z,37.50
2023-04-21T12:28:54.727Z,37.88
2023-04-21T12:31:24.153Z,38.25
2023-04-21T12:33:52.504Z,38.56
2023-04-21T12:36:20.750Z,38.69
2023-04-21T12:38:48.660Z,38.63
2023-04-21T12:41:17.702Z,38.64
2023-04-21T12:43:46.050Z,38.64
2023-04-21T12:46:18.516Z,38.60
2023-04-21T12:48:48.823Z,38.96
2023-04-21T12:51:17.729Z,38.98
2023-04-21T12:53:47.068Z,39.14
2023-04-21T12:56:15.288Z,38.90
2023-04-21T12:58:43.397Z,38.37
2023-04-21T13:01:12.225Z,37.44
2023-04-21T13:03:40.475Z,37.39
2023-04-21T13:06:10.137Z,36.77
2023-04-21T13:08:38.244Z,36.60
2023-04-21T13:11:06.588Z,36.74
2023-04-21T13:13:34.608Z,36.54
2023-04-21T13:16:02.609Z,36.65
2023-04-21T13:18:31.003Z,36.80
2023-04-21T13:20:59.026Z,36.94
2023-04-21T13:23:28.382Z,36.87
2023-04-21T13:25:56.475Z,37.08
2023-04-21T13:28:26.693Z,37.04
2023-04-21T13:30:54.993Z,36.95
2023-04-21T13:33:22.996Z,37.03
2023-04-21T13:35:51.097Z,37.23
2023-04-21T13:38:20.639Z,37.08
2023-04-21T13:40:51.503Z,37.13
2023-04-21T13:43:20.156Z,37.29
2023-04-21T13:45:50.697Z,37.75
2023-04-21T13:48:19.264Z,37.81
2023-04-21T13:50:47.280Z,38.12
2023-04-21T13:53:16.427Z,37.77
2023-04-21T13:55:45.569Z,38.40
2023-04-21T13:58:15.756Z,38.47
2023-04-21T14:00:43.921Z,38.55
2023-04-21T14:03:12.646Z,38.72
2023-04-21T14:05:40.917Z,38.63
2023-04-21T14:08:09.351Z,38.50
2023-04-21T14:10:37.413Z,38.67
2023-04-21T14:13:05.579Z,38.72
2023-04-21T14:15:34.987Z,38.57
2023-04-21T14:18:06.968Z,38.68
2023-04-21T14:20:36.762Z,38.57
2023-04-21T14:23:05.266Z,38.57
2023-04-21T14:25:33.296Z,38.59
2023-04-21T14:30:37.287Z,38.90
2023-04-21T14:33:06.175Z,39.01
2023-04-21T14:35:34.276Z,39.00
2023-04-21T14:38:02.261Z,38.80
2023-04-21T14:40:30.834Z,38.85
2023-04-21T14:42:58.988Z,39.20
2023-04-21T14:45:27.294Z,39.25
2023-04-21T14:47:56.724Z,39.46
2023-04-21T14:50:27.199Z,39.74
2023-04-21T14:53:01.509Z,39.70
2023-04-21T14:55:29.777Z,39.61
2023-04-21T14:57:57.752Z,39.53
2023-04-21T15:00:26.192Z,39.72
2023-04-21T15:02:54.270Z,40.06
2023-04-21T15:05:24.565Z,40.15
2023-04-21T15:07:52.707Z,40.17
2023-04-21T15:10:21.136Z,40.43
2023-04-21T15:12:49.746Z,40.73
2023-04-21T15:15:25.530Z,40.73
2023-04-21T15:17:53.495Z,41.02
2023-04-21T15:20:36.429Z,40.92
2023-04-21T15:23:11.031Z,41.25
2023-04-21T15:25:39.952Z,41.54
2023-04-21T15:28:10.414Z,41.34
2023-04-21T15:30:38.816Z,41.05
2023-04-21T15:33:06.873Z,40.58
2023-04-21T15:35:36.380Z,40.20
2023-04-21T15:38:05.238Z,40.06
2023-04-21T15:40:41.189Z,40.13
2023-04-21T15:43:14.779Z,40.18
2023-04-21T15:45:43.530Z,40.50
2023-04-21T15:48:13.138Z,40.67
2023-04-21T15:50:43.516Z,41.01
2023-04-21T15:53:11.854Z,41.30
2023-04-21T15:55:39.906Z,41.37
2023-04-21T15:58:07.986Z,41.27
2023-04-21T16:00:35.942Z,41.05
2023-04-21T16:03:04.111Z,41.08
2023-04-21T16:05:33.241Z,40.85
2023-04-21T16:08:02.642Z,41.25
2023-04-21T16:10:30.765Z,41.52
2023-04-21T16:12:59.448Z,41.57
2023-04-21T16:15:28.478Z,41.81
2023-04-21T16:18:06.273Z,41.99
2023-04-21T16:20:34.341Z,41.76
2023-04-21T16:23:04.806Z,41.71
2023-04-21T16:25:33.060Z,41.83
2023-04-21T16:28:02.352Z,41.90
2023-04-21T16:30:30.375Z,41.71
2023-04-21T16:33:07.764Z,42.02
2023-04-21T16:35:39.812Z,41.72
2023-04-21T16:38:09.494Z,41.66
2023-04-21T16:40:37.448Z,41.19
2023-04-21T16:43:05.596Z,40.96
2023-04-21T16:45:37.825Z,41.06
2023-04-21T16:48:08.229Z,40.76
2023-04-21T16:50:36.371Z,40.71
2023-04-21T16:53:04.282Z,40.58
2023-04-21T16:55:33.613Z,39.88
2023-04-21T16:58:01.572Z,40.14
2023-04-21T17:00:30.456Z,40.29
2023-04-21T17:02:58.727Z,40.43
2023-04-21T17:05:27.030Z,40.98
2023-04-21T17:07:55.309Z,41.49
2023-04-21T17:10:23.243Z,41.35
2023-04-21T17:12:52.589Z,41.71
2023-04-21T17:15:20.897Z,42.08
2023-04-21T17:17:49.567Z,42.47
2023-04-21T17:20:17.863Z,42.71
2023-04-21T17:22:46.347Z,42.87
2023-04-21T17:25:14.292Z,42.84
2023-04-21T17:27:42.952Z,43.32
2023-04-21T17:30:12.882Z,43.45
2023-04-21T17:32:41.664Z,43.64
2023-04-21T17:35:10.386Z,44.03
2023-04-21T17:37:38.373Z,44.82
2023-04-21T17:40:09.557Z,44.91
2023-04-21T17:42:37.668Z,45.67
2023-04-21T17:45:07.564Z,45.62
2023-04-21T17:47:37.291Z,46.15
2023-04-21T17:50:06.307Z,46.30
2023-04-21T17:52:34.533Z,46.24
2023-04-21T17:55:02.580Z,46.56
2023-04-21T17:57:30.903Z,46.73
2023-04-21T17:59:58.836Z,47.15
2023-04-21T18:02:27.058Z,47.08
2023-04-21T18:04:56.793Z,47.10
2023-04-21T18:07:25.087Z,47.00
2023-04-21T18:09:53.055Z,47.54
2023-04-21T18:12:28.255Z,47.40
2023-04-21T18:14:56.347Z,48.11
2023-04-21T18:17:24.363Z,47.78
2023-04-21T18:19:52.705Z,48.00
2023-04-21T18:22:22.260Z,48.14
2023-04-21T18:24:50.232Z,48.16
2023-04-21T18:27:18.194Z,48.06
2023-04-21T18:29:46.159Z,48.20
2023-04-21T18:32:14.544Z,48.32
2023-04-21T18:34:42.695Z,48.47
2023-04-21T18:37:10.851Z,48.62
2023-04-21T18:39:40.978Z,48.00
2023-04-21T18:42:10.576Z,48.48
2023-04-21T18:44:39.362Z,48.56
2023-04-21T18:47:07.684Z,48.90
2023-04-21T18:49:35.661Z,48.67
2023-04-21T18:52:06.179Z,48.80
2023-04-21T18:54:34.177Z,48.74
2023-04-21T18:57:04.201Z,48.79
2023-04-21T18:59:32.246Z,49.16
2023-04-21T19:02:01.218Z,49.01
2023-04-21T19:04:29.574Z,49.43
2023-04-21T19:06:57.701Z,48.82
2023-04-21T19:09:27.208Z,49.05
2023-04-21T19:11:55.234Z,49.55
2023-04-21T19:14:25.467Z,49.66
2023-04-21T19:16:53.994Z,49.73
2023-04-21T19:19:22.228Z,50.29
2023-04-21T19:21:50.314Z,50.39
2023-04-21T19:24:18.269Z,50.66
2023-04-21T19:26:46.726Z,50.81
2023-04-21T19:29:15.083Z,50.56
2023-04-21T19:31:44.520Z,51.18
2023-04-21T19:34:13.289Z,51.18
2023-04-21T19:36:41.995Z,51.26
2023-04-21T19:39:10.163Z,51.12
2023-04-21T19:41:38.158Z,51.01
2023-04-21T19:44:06.482Z,50.99
2023-04-21T19:46:37.304Z,50.98
2023-04-21T19:49:06.711Z,51.00
2023-04-21T19:51:35.934Z,51.06
2023-04-21T19:54:11.523Z,50.97
2023-04-21T19:56:40.760Z,51.15
2023-04-21T19:59:08.731Z,51.36
2023-04-21T20:01:36.819Z,51.59
2023-04-21T20:04:06.994Z,51.31
2023-04-21T20:06:35.515Z,51.82
2023-04-21T20:09:05.864Z,51.87
2023-04-21T20:11:34.200Z,52.15
2023-04-21T20:14:02.243Z,51.92
2023-04-21T20:16:30.365Z,51.90
2023-04-21T20:18:58.941Z,52.29
2023-04-21T20:21:28.866Z,52.39
2023-04-21T20:23:57.069Z,51.88
2023-04-21T20:26:25.122Z,51.89
2023-04-21T20:28:53.288Z,52.01
2023-04-21T20:31:25.759Z,52.38
2023-04-21T20:33:53.885Z,52.47
2023-04-21T20:36:22.251Z,52.01
2023-04-21T20:38:51.712Z,52.23
2023-04-21T20:41:23.353Z,52.45
2023-04-21T20:43:51.995Z,52.25
2023-04-21T20:46:20.031Z,52.53
2023-04-21T20:48:48.043Z,52.30
2023-04-21T20:51:16.224Z,52.07
2023-04-21T20:53:44.170Z,52.39
2023-04-21T20:56:13.668Z,52.57
2023-04-21T20:58:41.695Z,52.40
2023-04-21T21:01:10.177Z,52.38
2023-04-21T21:03:38.351Z,52.65
2023-04-21T21:06:06.559Z,52.53
2023-04-21T21:08:35.462Z,52.22
2023-04-21T21:11:03.719Z,52.15
2023-04-21T21:13:33.117Z,52.50
2023-04-21T21:16:01.134Z,52.54
2023-04-21T21:18:29.110Z,52.73
2023-04-21T21:20:57.256Z,52.66
2023-04-21T21:23:25.268Z,52.43
2023-04-21T21:25:53.231Z,52.42
2023-04-21T21:28:21.412Z,52.61
2023-04-21T21:30:50.757Z,52.46
2023-04-21T21:33:18.746Z,52.50
2023-04-21T21:35:46.679Z,52.69
2023-04-21T21:38:14.588Z,52.12
2023-04-21T21:40:42.616Z,52.30
2023-04-21T21:43:10.960Z,52.48
2023-04-21T21:45:39.100Z,52.44
2023-04-21T21:48:08.654Z,52.59
2023-04-21T21:50:36.631Z,52.46
2023-04-21T21:53:04.754Z,52.52
2023-04-21T21:55:32.721Z,52.25
2023-04-21T21:58:03.432Z,52.41
2023-04-21T22:00:31.441Z,52.13
2023-04-21T22:03:00.076Z,52.32
2023-04-21T22:05:29.565Z,52.38
2023-04-21T22:07:58.300Z,52.18
2023-04-21T22:10:26.283Z,52.12
2023-04-21T22:12:54.434Z,52.26
2023-04-21T22:15:22.691Z,52.36
2023-04-21T22:17:50.788Z,52.35
2023-04-21T22:20:19.284Z,52.15
2023-04-21T22:22:48.622Z,52.30
2023-04-21T22:25:17.003Z,52.17
2023-04-21T22:27:45.005Z,52.34
2023-04-21T22:30:13.481Z,52.18
2023-04-21T22:32:41.491Z,52.24
2023-04-21T22:35:10.042Z,52.21
2023-04-21T22:37:37.979Z,52.52
2023-04-21T22:40:08.903Z,52.24
2023-04-21T22:42:37.135Z,52.15
2023-04-21T22:45:05.545Z,52.29
2023-04-21T22:47:33.699Z,52.14
2023-04-21T22:50:01.850Z,52.28
2023-04-21T22:52:29.822Z,52.48
2023-04-21T22:54:57.857Z,52.50
2023-04-21T22:57:27.185Z,52.31
2023-04-21T22:59:55.215Z,52.18
2023-04-21T23:02:23.379Z,52.31
2023-04-21T23:04:51.577Z,52.36
2023-04-21T23:07:19.479Z,52.24
2023-04-21T23:09:47.479Z,52.19
2023-04-21T23:12:15.667Z,52.12
2023-04-21T23:14:45.051Z,52.31
2023-04-21T23:17:13.451Z,52.26
2023-04-21T23:19:42.009Z,52.11
2023-04-21T23:22:09.986Z,52.20
2023-04-21T23:24:38.034Z,52.17
2023-04-21T23:27:06.064Z,52.28
2023-04-21T23:29:34.115Z,52.32
2023-04-21T23:32:03.698Z,52.39
2023-04-21T23:34:31.626Z,52.12
2023-04-21T23:36:59.564Z,52.15
2023-04-21T23:39:27.584Z,52.28
2023-04-21T23:41:55.822Z,52.41
2023-04-21T23:44:23.788Z,52.65
2023-04-21T23:46:51.805Z,52.36
2023-04-21T23:49:21.972Z,52.42
2023-04-21T23:51:50.009Z,52.29
2023-04-21T23:54:17.975Z,52.17
2023-04-21T23:56:46.003Z,52.28
2023-04-21T23:59:14.725Z,52.17
